createdAt,value
2023-04-01T00:00:08.983Z,11.5
2023-04-01T00:24:09.079Z,10.5
2023-04-01T00:36:09.052Z,10.5
2023-04-01T00:48:09.032Z,10.5
2023-04-01T01:00:09.138Z,10.5
2023-04-01T01:12:09.060Z,10.5
2023-04-01T01:24:09.108Z,10.5
2023-04-01T01:36:09.016Z,11
2023-04-01T01:48:09.191Z,10.5
2023-04-01T02:00:09.118Z,11
2023-04-01T02:12:09.070Z,10.5
2023-04-01T02:24:09.259Z,11
2023-04-01T02:36:09.298Z,11
2023-04-01T02:48:09.112Z,12
2023-04-01T03:00:09.109Z,12
2023-04-01T03:12:09.242Z,11.5
2023-04-01T03:24:09.309Z,11
2023-04-01T03:36:09.201Z,10.5
2023-04-01T03:48:09.184Z,10.5
2023-04-01T04:00:09.102Z,10.5
2023-04-01T04:12:09.283Z,10.5
2023-04-01T04:24:09.263Z,10.5
2023-04-01T04:36:09.203Z,10
2023-04-01T04:48:09.375Z,10
2023-04-01T05:00:09.324Z,9.5
2023-04-01T05:12:09.250Z,10
2023-04-01T05:24:09.300Z,11
2023-04-01T05:36:09.429Z,10.5
2023-04-01T05:48:09.342Z,10
2023-04-01T06:00:09.278Z,10
2023-04-01T06:12:09.260Z,10
2023-04-01T06:24:09.448Z,10
2023-04-01T06:36:09.427Z,10.5
2023-04-01T06:48:09.329Z,14
2023-04-01T07:00:09.511Z,18
2023-04-01T07:12:09.423Z,21
2023-04-01T07:24:09.452Z,20
2023-04-01T07:36:09.360Z,18
2023-04-01T07:48:09.551Z,19
2023-04-01T08:00:09.450Z,16
2023-04-01T08:12:09.433Z,14.5
2023-04-01T08:24:09.402Z,22
2023-04-01T08:36:09.623Z,21
2023-04-01T08:48:09.725Z,18
2023-04-01T09:00:09.651Z,19
2023-04-01T09:12:09.494Z,18
2023-04-01T09:24:09.699Z,24.5
2023-04-01T09:36:09.655Z,26.5
2023-04-01T09:48:09.621Z,27
2023-04-01T10:00:09.497Z,19.5
2023-04-01T10:12:09.711Z,15.5
2023-04-01T10:24:09.646Z,15
2023-04-01T10:36:09.634Z,16
2023-04-01T10:48:09.530Z,16
2023-04-01T11:00:09.716Z,15
2023-04-01T11:12:09.663Z,14.5
2023-04-01T11:24:09.695Z,14.5
2023-04-01T11:36:09.743Z,15.5
2023-04-01T11:48:09.777Z,14.5
2023-04-01T12:00:09.687Z,15
2023-04-01T12:12:09.634Z,14.5
2023-04-01T12:24:09.825Z,14.5
2023-04-01T12:36:09.843Z,15.5
2023-04-01T12:48:09.719Z,16
2023-04-01T13:00:09.704Z,15.5
2023-04-01T13:12:09.824Z,15.5
2023-04-01T13:24:09.869Z,15.5
2023-04-01T13:36:09.795Z,15.5
2023-04-01T13:48:09.749Z,15.5
2023-04-01T14:00:09.868Z,14.5
2023-04-01T14:12:09.871Z,14.5
2023-04-01T14:24:09.830Z,14
2023-04-01T14:36:09.771Z,13.5
2023-04-01T14:48:09.931Z,13.5
2023-04-01T15:00:09.868Z,12.5
2023-04-01T15:12:09.828Z,11.5
2023-04-01T15:24:09.860Z,12
2023-04-01T15:36:09.945Z,12
2023-04-01T15:48:09.922Z,13
2023-04-01T16:00:09.848Z,13
2023-04-01T16:12:10.026Z,13
2023-04-01T16:24:10.023Z,13
2023-04-01T16:36:11.318Z,12.5
2023-04-01T16:48:09.891Z,12
2023-04-01T17:00:10.057Z,12
2023-04-01T17:12:09.987Z,12.5
2023-04-01T17:24:10.018Z,11
2023-04-01T17:36:09.987Z,11
2023-04-01T17:48:10.161Z,11
2023-04-01T18:00:10.018Z,12
2023-04-01T18:12:10.004Z,12
2023-04-01T18:24:10.180Z,12
2023-04-01T18:36:10.185Z,12
2023-04-01T18:48:10.086Z,12
2023-04-01T19:00:10.052Z,12
2023-04-01T19:12:10.166Z,11.5
2023-04-01T19:24:10.204Z,11.5
2023-04-01T19:36:10.086Z,11.5
2023-04-01T19:48:10.079Z,11.5
2023-04-01T20:00:10.205Z,11.5
2023-04-01T20:12:10.185Z,11.5
2023-04-01T20:24:10.167Z,12
2023-04-01T20:36:10.310Z,12
2023-04-01T20:48:10.239Z,12
2023-04-01T21:00:10.260Z,11.5
2023-04-01T21:12:10.169Z,11.5
2023-04-01T21:24:10.767Z,11
2023-04-01T21:48:10.223Z,11.5
2023-04-01T22:00:10.405Z,11.5
2023-04-01T22:12:10.317Z,11.5
2023-04-01T22:24:10.233Z,11.5
2023-04-01T22:36:10.454Z,11.5
2023-04-01T22:48:10.353Z,11.5
2023-04-01T23:00:10.368Z,11.5
2023-04-01T23:12:10.287Z,11.5
2023-04-01T23:24:10.486Z,11.5
2023-04-01T23:36:10.440Z,11.5
2023-04-01T23:48:10.433Z,11.5
